Houston, Delaware
Current Conditions -  °F | °C
As of 4:58 AM on Sunday 21 Dec 2014 (Local Time) from KDOV Reporting Station
Overcast Overcast  
Wind Chill: 31°   Ceiling: 7500
Heat Index: 31°   Visibility: 10mi
Dew Point: 28°   Wind: 1mph
Humidity: 89%   Direction: 270°W
Pressure: 30.28"   Gusts: NA
Location:  38.92°N, 75.51°W
Report Text: KDOV 210958Z AUTO 27001KT 10SM OVC075 M01/M02 A3028 RMK AO2 SLP257 T10081024
Loading
Personal Weather Stations






























Interactive Weather Map New forecast layout! Learn more

10-Day Weather Forecast

Advertisements
Track Severe Weather on mobile